Time;durP1;ratioP1;P1;durP2;ratioP2;P2;SDS_P1;SDS_P2;PMS_P1;PMS_P2;Temp;Humidity;BMP_temperature;BMP_pressure;BME280_temperature;BME280_humidity;BME280_pressure;Samples;Min_cycle;Max_cycle;Signal;HPM_P1;HPM_P2
2023/10/02 00:01:10;;;;;;;14.17;12.77;;;18.10;23.00;;;;;;4961614;28;20428;-79
2023/10/02 00:03:39;;;;;;;13.93;12.67;;;18.10;23.00;;;;;;4978518;28;20461;-79
2023/10/02 00:06:05;;;;;;;14.20;12.90;;;18.10;23.20;;;;;;4977399;28;20469;-79
2023/10/02 00:08:40;;;;;;;12.90;11.77;;;18.10;23.20;;;;;;4978515;28;20450;-78
2023/10/02 00:11:41;;;;;;;13.47;12.27;;;18.10;23.10;;;;;;4979650;28;20410;-79
2023/10/02 00:14:18;;;;;;;12.50;11.40;;;18.10;23.20;;;;;;4978722;28;20829;-79
2023/10/02 00:16:58;;;;;;;14.00;12.60;;;18.00;23.30;;;;;;4978578;28;20413;-79
2023/10/02 00:19:27;;;;;;;13.53;12.33;;;18.00;23.20;;;;;;4979019;28;20437;-79
2023/10/02 00:21:57;;;;;;;14.03;12.73;;;18.00;23.60;;;;;;4978763;28;20783;-79
2023/10/02 00:24:27;;;;;;;13.53;12.40;;;17.90;23.70;;;;;;4978016;28;20445;-79
2023/10/02 00:26:57;;;;;;;13.87;12.67;;;18.00;23.80;;;;;;4960823;28;20462;-79
2023/10/02 00:29:24;;;;;;;14.00;12.77;;;17.90;24.10;;;;;;4977820;28;20820;-79
2023/10/02 00:31:50;;;;;;;13.77;12.50;;;17.90;23.50;;;;;;4978524;28;20513;-79
2023/10/02 00:34:16;;;;;;;13.23;12.03;;;18.00;23.60;;;;;;4978239;28;20434;-79
2023/10/02 00:36:42;;;;;;;14.03;12.70;;;18.00;23.70;;;;;;4978692;28;20414;-79
2023/10/02 00:39:30;;;;;;;13.67;12.57;;;18.00;23.60;;;;;;4977334;28;20206;-78
2023/10/02 00:45:02;;;;;;;13.37;12.03;;;18.00;23.80;;;;;;4976823;28;20441;-79
2023/10/02 00:47:38;;;;;;;13.70;12.50;;;18.00;23.60;;;;;;4976925;28;20461;-78
2023/10/02 00:50:30;;;;;;;13.40;12.20;;;18.00;23.60;;;;;;4975925;28;20917;-79
2023/10/02 00:53:03;;;;;;;13.47;12.10;;;18.00;23.40;;;;;;4975788;28;20429;-79
2023/10/02 00:55:33;;;;;;;12.33;11.20;;;18.00;23.60;;;;;;4976793;28;20407;-79
2023/10/02 00:58:01;;;;;;;12.50;11.40;;;18.00;23.70;;;;;;4976256;28;20425;-79
2023/10/02 01:00:35;;;;;;;14.27;12.80;;;18.00;23.70;;;;;;4976823;28;20414;-79
2023/10/02 01:03:04;;;;;;;13.83;12.63;;;18.00;23.60;;;;;;4977042;28;20426;-79
2023/10/02 01:05:41;;;;;;;13.53;12.33;;;17.90;23.70;;;;;;4976458;28;20417;-79
2023/10/02 01:08:25;;;;;;;12.83;11.80;;;18.00;23.70;;;;;;4976775;28;20460;-79
2023/10/02 01:10:56;;;;;;;12.43;11.40;;;17.90;23.80;;;;;;4976692;28;20424;-79
2023/10/02 01:13:27;;;;;;;12.90;11.70;;;17.90;23.80;;;;;;4976756;28;20771;-78
2023/10/02 01:15:54;;;;;;;12.93;11.83;;;17.90;23.70;;;;;;4976559;28;20910;-79
2023/10/02 01:18:23;;;;;;;12.50;11.50;;;17.90;23.90;;;;;;4976007;28;20410;-79
2023/10/02 01:20:53;;;;;;;13.07;12.07;;;17.90;23.90;;;;;;4976358;28;20406;-79
2023/10/02 01:23:23;;;;;;;12.53;11.43;;;17.90;24.10;;;;;;4959162;28;20492;-79
2023/10/02 01:25:49;;;;;;;13.20;12.13;;;17.90;24.20;;;;;;4977102;28;20414;-79
2023/10/02 01:28:25;;;;;;;13.90;12.70;;;17.90;24.40;;;;;;4976861;28;20410;-79
2023/10/02 01:30:51;;;;;;;14.33;13.07;;;17.90;24.40;;;;;;4977727;28;20406;-79
2023/10/02 01:33:26;;;;;;;14.13;12.83;;;17.90;24.50;;;;;;4977235;28;20426;-78
2023/10/02 01:35:54;;;;;;;13.33;12.23;;;17.80;24.40;;;;;;4977893;28;20497;-79
2023/10/02 01:38:33;;;;;;;12.40;11.30;;;17.80;24.40;;;;;;4977337;28;20704;-79
2023/10/02 01:41:06;;;;;;;14.80;13.40;;;17.80;24.60;;;;;;4977237;28;20509;-78
2023/10/02 01:43:38;;;;;;;13.30;12.10;;;17.80;24.40;;;;;;4975492;28;20984;-79
2023/10/02 01:46:06;;;;;;;13.20;12.10;;;17.80;24.40;;;;;;4977163;28;20534;-79
2023/10/02 01:48:36;;;;;;;13.40;12.10;;;17.80;24.60;;;;;;4977620;28;20421;-79
2023/10/02 01:51:26;;;;;;;12.87;11.90;;;17.80;24.60;;;;;;4979792;28;20460;-79
2023/10/02 01:53:54;;;;;;;14.07;12.97;;;17.80;24.60;;;;;;4980627;28;20437;-79
2023/10/02 01:56:27;;;;;;;14.50;13.20;;;17.80;24.60;;;;;;4980891;28;20468;-78
2023/10/02 01:58:54;;;;;;;15.20;13.90;;;17.80;24.70;;;;;;4978942;28;20417;-79
2023/10/02 02:01:21;;;;;;;14.13;12.83;;;17.80;24.70;;;;;;4979516;28;20826;-79
2023/10/02 02:03:51;;;;;;;14.47;13.10;;;17.70;24.70;;;;;;4978538;28;20492;-79
2023/10/02 02:06:22;;;;;;;14.13;12.90;;;17.70;25.40;;;;;;4962020;28;20461;-79
2023/10/02 02:09:01;;;;;;;13.93;12.80;;;17.70;24.90;;;;;;4980007;28;20426;-79
2023/10/02 02:11:30;;;;;;;14.70;13.20;;;17.70;24.90;;;;;;4979790;28;20409;-79
2023/10/02 02:14:02;;;;;;;13.93;12.67;;;17.80;24.90;;;;;;4978852;28;20487;-79
2023/10/02 02:16:33;;;;;;;13.07;12.03;;;17.70;24.90;;;;;;4979874;28;20414;-79
2023/10/02 02:19:05;;;;;;;13.53;12.57;;;17.80;25.00;;;;;;4962025;28;20436;-79
2023/10/02 02:21:32;;;;;;;13.50;12.23;;;17.70;25.10;;;;;;4979187;28;20414;-79
2023/10/02 02:24:06;;;;;;;14.67;13.23;;;17.70;24.90;;;;;;4978854;28;20437;-79
2023/10/02 02:26:33;;;;;;;14.33;13.03;;;17.70;25.30;;;;;;4961543;28;20465;-79
2023/10/02 02:29:00;;;;;;;13.70;12.40;;;17.70;25.30;;;;;;4961549;28;20750;-79
2023/10/02 02:31:29;;;;;;;13.30;12.30;;;17.70;25.40;;;;;;4978443;28;20798;-79
2023/10/02 02:34:14;;;;;;;13.53;12.43;;;17.70;25.50;;;;;;4976969;28;20444;-79
2023/10/02 02:36:42;;;;;;;13.50;12.30;;;17.60;25.40;;;;;;4978859;28;20429;-79
2023/10/02 02:39:15;;;;;;;14.20;12.80;;;17.60;25.60;;;;;;4978995;28;20419;-79
2023/10/02 02:41:41;;;;;;;14.20;13.00;;;17.60;25.70;;;;;;4979090;28;20430;-79
2023/10/02 02:44:29;;;;;;;14.40;13.10;;;17.60;25.80;;;;;;5005897;22;20442;-77
2023/10/02 02:46:55;;;;;;;16.17;12.67;;;17.60;25.80;;;;;;5001196;28;20499;-80
2023/10/02 02:49:22;;;;;;;14.17;12.93;;;17.60;25.90;;;;;;4985634;28;20517;-80
2023/10/02 02:51:48;;;;;;;14.30;12.97;;;17.60;25.90;;;;;;5002585;28;20444;-81
2023/10/02 02:54:15;;;;;;;14.40;13.20;;;17.60;25.90;;;;;;5003135;28;20445;-82
2023/10/02 02:56:41;;;;;;;14.27;12.97;;;17.60;25.90;;;;;;4985957;28;20224;-81
2023/10/02 02:59:08;;;;;;;13.60;12.40;;;17.60;25.90;;;;;;4985642;28;20437;-81
2023/10/02 03:01:34;;;;;;;14.33;13.23;;;17.50;25.90;;;;;;5002231;28;20186;-82
2023/10/02 03:04:11;;;;;;;14.17;12.93;;;17.30;26.40;;;;;;4985466;28;20441;-82
2023/10/02 03:06:37;;;;;;;14.40;13.20;;;17.20;26.80;;;;;;4985951;28;20524;-82
2023/10/02 03:09:05;;;;;;;14.67;13.57;;;17.20;27.00;;;;;;4986915;28;20513;-80
2023/10/02 03:11:32;;;;;;;15.57;14.20;;;17.20;26.90;;;;;;5003882;28;20425;-78
2023/10/02 03:14:13;;;;;;;14.13;12.87;;;17.20;26.80;;;;;;5002191;28;20429;-81
2023/10/02 03:16:39;;;;;;;15.10;13.90;;;17.10;27.10;;;;;;4985573;28;20424;-79
2023/10/02 03:19:07;;;;;;;14.73;13.70;;;17.10;27.00;;;;;;4982268;28;20461;-81
2023/10/02 03:21:37;;;;;;;15.60;14.40;;;17.00;27.30;;;;;;4981666;28;20483;-82
2023/10/02 03:24:04;;;;;;;15.37;14.10;;;17.00;27.90;;;;;;4999906;28;20433;-81
2023/10/02 03:29:03;;;;;;;15.20;13.80;;;16.80;27.80;;;;;;5001596;28;20463;-82
2023/10/02 03:31:51;;;;;;;14.90;13.70;;;17.00;28.00;;;;;;5001074;28;20567;-83
2023/10/02 03:34:32;;;;;;;15.70;14.30;;;17.00;27.60;;;;;;4976954;28;20960;-80
2023/10/02 03:37:09;;;;;;;15.57;14.17;;;17.10;27.20;;;;;;5002735;28;20437;-81
2023/10/02 03:42:25;;;;;;;15.77;14.37;;;17.20;26.80;;;;;;4997944;28;20428;-81
2023/10/02 03:44:54;;;;;;;16.13;14.73;;;17.20;26.80;;;;;;4993385;28;20461;-81
2023/10/02 03:47:21;;;;;;;16.90;15.27;;;17.20;26.80;;;;;;4985677;28;20464;-79
2023/10/02 03:49:47;;;;;;;16.60;15.10;;;17.20;26.90;;;;;;4983323;28;20425;-81
2023/10/02 03:52:16;;;;;;;14.67;13.60;;;17.20;26.90;;;;;;5002672;28;20913;-81
2023/10/02 03:54:45;;;;;;;16.63;15.33;;;17.20;26.90;;;;;;5001321;28;20444;-79
2023/10/02 04:00:18;;;;;;;16.70;15.30;;;17.20;26.80;;;;;;5000730;28;20432;-81
2023/10/02 04:02:48;;;;;;;16.83;15.30;;;17.20;26.90;;;;;;4999861;28;20425;-78
2023/10/02 04:05:33;;;;;;;15.77;14.53;;;17.20;26.80;;;;;;4982713;28;20468;-79
2023/10/02 04:10:55;;;;;;;16.50;15.00;;;17.20;26.70;;;;;;5000361;28;20436;-80
2023/10/02 04:13:27;;;;;;;17.50;15.90;;;16.90;27.90;;;;;;4975099;28;20850;-81
2023/10/02 04:15:53;;;;;;;17.23;15.63;;;16.80;27.80;;;;;;4982331;28;20441;-81
2023/10/02 04:21:12;;;;;;;17.60;16.10;;;16.40;29.10;;;;;;5006437;28;20444;-81
2023/10/02 04:23:42;;;;;;;16.33;15.13;;;16.20;29.90;;;;;;4988654;28;20504;-80
2023/10/02 04:26:19;;;;;;;17.00;15.40;;;16.10;30.00;;;;;;5003662;28;20452;-80
2023/10/02 04:28:54;;;;;;;16.67;15.30;;;16.10;30.20;;;;;;5001850;28;20919;-80
2023/10/02 04:31:22;;;;;;;16.93;15.53;;;16.10;30.70;;;;;;4977306;28;20471;-81
2023/10/02 04:34:15;;;;;;;18.03;15.97;;;16.30;30.10;;;;;;4985008;28;20927;-80
2023/10/02 04:36:40;;;;;;;17.47;15.77;;;16.40;29.60;;;;;;4997565;28;20488;-81
2023/10/02 04:39:53;;;;;;;17.27;15.70;;;16.70;29.10;;;;;;4985579;28;20436;-82
2023/10/02 04:42:11;;;;;;;16.13;14.83;;;16.70;28.50;;;;;;5002675;28;20809;-78
2023/10/02 04:44:44;;;;;;;17.63;16.13;;;16.80;28.90;;;;;;5001328;28;20460;-81
2023/10/02 04:47:20;;;;;;;16.63;15.37;;;16.80;28.10;;;;;;4983623;28;20468;-80
2023/10/02 04:52:58;;;;;;;16.43;15.10;;;16.90;27.90;;;;;;4994908;28;21000;-78
2023/10/02 04:55:27;;;;;;;16.90;15.60;;;16.90;27.90;;;;;;4968174;28;20453;-78
2023/10/02 04:58:04;;;;;;;17.00;15.47;;;16.80;28.40;;;;;;4984971;28;20443;-79
2023/10/02 05:00:33;;;;;;;17.27;16.00;;;16.80;28.20;;;;;;5001169;28;20513;-80
2023/10/02 05:03:09;;;;;;;16.43;15.13;;;16.80;28.00;;;;;;4982925;28;20460;-81
2023/10/02 05:05:42;;;;;;;15.83;14.63;;;16.80;28.40;;;;;;4984131;28;20488;-77
2023/10/02 05:08:18;;;;;;;16.30;14.80;;;16.80;28.10;;;;;;5002325;28;20480;-78
2023/10/02 05:10:47;;;;;;;16.70;15.30;;;16.90;27.90;;;;;;5001654;28;20432;-79
2023/10/02 05:13:13;;;;;;;18.27;16.47;;;16.90;27.90;;;;;;5000574;28;20429;-78
2023/10/02 05:16:06;;;;;;;18.60;17.00;;;16.90;27.90;;;;;;5001457;28;20453;-81
2023/10/02 05:18:24;;;;;;;17.07;15.73;;;16.90;27.90;;;;;;5001207;28;20417;-81
2023/10/02 05:20:51;;;;;;;16.47;15.10;;;16.90;28.00;;;;;;4984428;28;20492;-79
2023/10/02 05:23:18;;;;;;;15.07;13.93;;;16.80;27.90;;;;;;5002345;28;20181;-81
2023/10/02 05:25:43;;;;;;;17.23;15.93;;;16.80;28.20;;;;;;5004095;28;20445;-78
2023/10/02 05:28:10;;;;;;;17.50;16.10;;;16.80;27.80;;;;;;4988560;28;20461;-80
2023/10/02 05:30:43;;;;;;;16.87;15.53;;;16.90;27.90;;;;;;4983588;28;20174;-78
2023/10/02 05:33:15;;;;;;;16.60;15.30;;;16.80;28.10;;;;;;4983467;28;20440;-80
2023/10/02 05:35:45;;;;;;;16.10;14.80;;;16.80;28.20;;;;;;5000853;28;20820;-82
2023/10/02 05:38:16;;;;;;;16.77;15.43;;;16.80;28.30;;;;;;4982990;28;20471;-82
2023/10/02 05:40:47;;;;;;;16.57;15.27;;;16.80;28.40;;;;;;4984342;28;20468;-78
2023/10/02 05:43:17;;;;;;;17.80;16.20;;;16.80;28.50;;;;;;4984663;28;20433;-80
2023/10/02 05:50:52;;;;;;;17.20;15.60;;;16.90;28.40;;;;;;4983923;28;20441;-80
2023/10/02 05:53:26;;;;;;;16.97;15.57;;;16.90;28.30;;;;;;4999847;28;20520;-78
2023/10/02 05:56:05;;;;;;;15.90;14.80;;;16.90;28.40;;;;;;4980798;28;20531;-79
2023/10/02 05:58:41;;;;;;;18.70;17.13;;;16.90;28.50;;;;;;4979563;28;20425;-77
2023/10/02 06:01:26;;;;;;;17.10;15.60;;;16.90;28.70;;;;;;4987025;28;20456;-77
2023/10/02 06:04:00;;;;;;;16.80;15.20;;;16.90;28.60;;;;;;4984141;28;20783;-81
2023/10/02 06:06:27;;;;;;;17.53;15.93;;;16.90;28.70;;;;;;5005691;28;20491;-78
2023/10/02 06:09:03;;;;;;;18.23;15.70;;;16.90;28.70;;;;;;5006645;28;20414;-78
2023/10/02 06:11:33;;;;;;;16.17;14.90;;;16.90;28.70;;;;;;4979295;28;20422;-78
2023/10/02 06:14:13;;;;;;;18.37;16.97;;;16.90;28.50;;;;;;4981757;28;20433;-78
2023/10/02 06:16:45;;;;;;;18.80;17.30;;;16.90;28.60;;;;;;4992363;28;20650;-79
2023/10/02 06:19:14;;;;;;;20.07;18.07;;;16.60;28.90;;;;;;4980258;28;20441;-79
2023/10/02 06:24:29;;;;;;;18.40;17.00;;;16.50;29.70;;;;;;5009857;28;20437;-77
2023/10/02 06:26:57;;;;;;;17.97;16.47;;;16.40;30.00;;;;;;4982852;28;20475;-79
2023/10/02 06:29:32;;;;;;;17.00;15.33;;;16.40;30.00;;;;;;4984609;28;20429;-79
2023/10/02 06:31:58;;;;;;;17.20;15.80;;;16.60;30.10;;;;;;4995052;28;20772;-78
2023/10/02 06:34:39;;;;;;;16.30;14.97;;;16.50;29.90;;;;;;4986920;28;20493;-80
2023/10/02 06:37:13;;;;;;;17.23;15.73;;;16.50;30.30;;;;;;4979005;28;20846;-77
2023/10/02 06:39:45;;;;;;;16.73;15.30;;;16.50;30.20;;;;;;4999892;28;20425;-80
2023/10/02 06:42:17;;;;;;;17.73;16.23;;;16.40;30.00;;;;;;4983411;28;20516;-80
2023/10/02 06:44:52;;;;;;;18.17;16.47;;;16.40;30.40;;;;;;5001376;28;20457;-82
2023/10/02 06:47:23;;;;;;;18.10;16.50;;;16.40;30.60;;;;;;5000473;28;20881;-79
2023/10/02 06:49:52;;;;;;;24.93;22.73;;;16.40;30.70;;;;;;4999801;28;20501;-81
2023/10/02 06:52:19;;;;;;;18.30;16.70;;;16.30;30.70;;;;;;5004494;28;20429;-80
2023/10/02 06:54:55;;;;;;;17.10;15.60;;;16.40;31.10;;;;;;4983802;28;20441;-80
2023/10/02 06:57:24;;;;;;;19.97;18.10;;;16.50;30.70;;;;;;5004782;28;20427;-82
2023/10/02 06:59:53;;;;;;;17.67;16.00;;;16.60;30.30;;;;;;4985789;28;20431;-79
2023/10/02 07:02:19;;;;;;;18.20;16.50;;;16.80;30.10;;;;;;5002696;28;20429;-81
2023/10/02 07:04:47;;;;;;;16.53;15.13;;;16.90;29.90;;;;;;4984977;28;20475;-81
2023/10/02 07:07:20;;;;;;;18.57;16.83;;;17.00;29.60;;;;;;4985165;28;20206;-81
2023/10/02 07:09:48;;;;;;;18.17;16.57;;;16.90;29.50;;;;;;4985389;28;20520;-79
2023/10/02 07:12:13;;;;;;;16.57;15.10;;;17.00;29.50;;;;;;5001880;28;20437;-81
2023/10/02 07:14:41;;;;;;;17.80;16.30;;;17.10;29.40;;;;;;4985686;28;20957;-80
2023/10/02 07:17:16;;;;;;;18.73;17.00;;;17.20;29.30;;;;;;5002141;28;20206;-80
2023/10/02 07:19:51;;;;;;;18.20;16.50;;;17.20;29.20;;;;;;5002937;28;20432;-80
2023/10/02 07:22:23;;;;;;;16.20;14.70;;;17.30;29.10;;;;;;5002144;28;20416;-80
2023/10/02 07:24:52;;;;;;;17.03;15.53;;;17.30;29.00;;;;;;5001342;28;20441;-80
2023/10/02 07:27:28;;;;;;;17.43;15.77;;;17.40;28.80;;;;;;4985540;28;20492;-81
2023/10/02 07:29:58;;;;;;;14.10;12.90;;;17.50;28.70;;;;;;5000402;28;20485;-80
2023/10/02 07:32:27;;;;;;;17.07;15.13;;;17.50;28.70;;;;;;5004535;28;20479;-81
2023/10/02 07:34:54;;;;;;;18.00;16.40;;;17.60;28.30;;;;;;4987873;28;20449;-79
2023/10/02 07:37:21;;;;;;;17.83;16.27;;;17.60;28.40;;;;;;4996405;28;20426;-81
2023/10/02 07:40:00;;;;;;;16.87;15.47;;;17.60;28.30;;;;;;4991060;28;20441;-79
2023/10/02 07:42:34;;;;;;;17.83;16.10;;;17.70;28.40;;;;;;5003942;28;20477;-77
2023/10/02 07:45:24;;;;;;;17.50;15.83;;;17.70;28.40;;;;;;4995222;28;20475;-80
2023/10/02 07:48:08;;;;;;;18.77;16.87;;;17.70;28.40;;;;;;5000201;28;20883;-79
2023/10/02 07:50:44;;;;;;;19.17;17.43;;;17.60;28.30;;;;;;5007828;28;20805;-78
2023/10/02 07:53:09;;;;;;;23.93;18.73;;;17.60;28.30;;;;;;5005735;28;20429;-80
2023/10/02 07:55:42;;;;;;;17.93;16.27;;;17.60;28.30;;;;;;4991256;28;20455;-79
2023/10/02 07:58:08;;;;;;;18.77;17.03;;;17.60;28.30;;;;;;4997717;28;20222;-79
2023/10/02 08:00:38;;;;;;;18.30;16.50;;;17.70;28.40;;;;;;4986332;28;20564;-78
2023/10/02 08:05:57;;;;;;;18.30;16.73;;;17.80;28.50;;;;;;5005245;28;20495;-80
2023/10/02 08:08:32;;;;;;;19.40;17.53;;;17.90;28.10;;;;;;5003556;28;20465;-79
2023/10/02 08:11:06;;;;;;;16.77;15.17;;;18.00;27.80;;;;;;5005701;28;20459;-80
2023/10/02 08:13:35;;;;;;;17.07;15.50;;;18.00;28.10;;;;;;4992173;28;20437;-79
2023/10/02 08:16:11;;;;;;;16.87;15.37;;;18.00;28.00;;;;;;5005252;28;20825;-79
2023/10/02 08:18:56;;;;;;;17.77;15.37;;;18.10;28.10;;;;;;4997882;28;20436;-79
2023/10/02 08:21:33;;;;;;;17.90;16.37;;;18.20;27.60;;;;;;4999100;28;20441;-80
2023/10/02 08:24:01;;;;;;;18.27;16.63;;;18.30;27.60;;;;;;5014017;28;20493;-80
2023/10/02 08:26:27;;;;;;;17.17;15.47;;;18.30;27.30;;;;;;4986378;28;20461;-79
2023/10/02 08:28:53;;;;;;;17.30;15.80;;;18.30;27.20;;;;;;5008086;28;20814;-79
2023/10/02 08:31:19;;;;;;;18.60;16.57;;;18.40;27.00;;;;;;4994906;28;20529;-80
2023/10/02 08:33:45;;;;;;;24.63;15.93;;;18.50;26.70;;;;;;5006890;28;20440;-79
2023/10/02 08:36:12;;;;;;;17.93;16.30;;;18.50;26.50;;;;;;5008560;28;20206;-80
2023/10/02 08:38:40;;;;;;;17.50;15.80;;;18.60;26.20;;;;;;5015747;28;20239;-80
2023/10/02 08:41:08;;;;;;;17.33;15.73;;;18.60;25.80;;;;;;5001842;28;20460;-81
2023/10/02 08:43:41;;;;;;;17.20;15.50;;;18.70;26.00;;;;;;4999654;28;20428;-81
2023/10/02 08:46:21;;;;;;;20.33;16.10;;;18.80;25.80;;;;;;5006984;23;20488;-80
2023/10/02 08:48:54;;;;;;;15.77;14.40;;;18.80;25.90;;;;;;4997216;28;20940;-81
2023/10/02 08:51:29;;;;;;;18.50;15.83;;;18.90;25.80;;;;;;4998630;28;20429;-80
2023/10/02 08:53:58;;;;;;;16.80;15.37;;;19.00;25.80;;;;;;4980416;28;20957;-79
2023/10/02 08:56:29;;;;;;;16.33;14.90;;;19.00;25.70;;;;;;5003050;28;20449;-79
2023/10/02 08:59:16;;;;;;;17.63;16.13;;;19.10;25.30;;;;;;4988831;28;20864;-81
2023/10/02 09:01:42;;;;;;;16.90;15.30;;;19.30;25.00;;;;;;4999378;28;20806;-78
2023/10/02 09:07:14;;;;;;;15.20;13.90;;;19.60;24.70;;;;;;5004971;28;20486;-80
2023/10/02 09:09:45;;;;;;;18.83;16.50;;;19.70;23.80;;;;;;5005618;28;20413;-80
2023/10/02 09:12:15;;;;;;;16.17;14.87;;;19.90;23.60;;;;;;4999012;28;20945;-79
2023/10/02 09:14:41;;;;;;;16.60;15.00;;;20.10;23.20;;;;;;5015173;28;20452;-79
2023/10/02 09:17:17;;;;;;;17.97;16.27;;;20.20;23.30;;;;;;5009317;28;20480;-80
2023/10/02 09:20:00;;;;;;;16.90;15.43;;;20.40;23.00;;;;;;5017107;28;20431;-81
2023/10/02 09:22:27;;;;;;;16.50;14.90;;;20.50;22.00;;;;;;5000879;28;20519;-81
2023/10/02 09:25:26;;;;;;;15.97;14.57;;;20.70;22.20;;;;;;5013656;28;20663;-82
2023/10/02 09:27:56;;;;;;;16.60;15.00;;;20.90;21.90;;;;;;5002243;28;20467;-80
2023/10/02 09:33:07;;;;;;;15.90;14.50;;;21.20;21.40;;;;;;5004734;28;20444;-81
2023/10/02 09:38:06;;;;;;;17.50;15.80;;;21.50;20.80;;;;;;4999104;28;20983;-81
2023/10/02 09:41:20;;;;;;;15.63;14.23;;;21.50;19.90;;;;;;5006404;28;20429;-81
2023/10/02 09:43:25;;;;;;;16.57;14.67;;;21.60;20.00;;;;;;4995881;28;20426;-81
2023/10/02 09:46:06;;;;;;;17.00;13.70;;;21.60;19.70;;;;;;4999242;28;20967;-81
2023/10/02 09:51:26;;;;;;;17.23;15.43;;;21.70;19.80;;;;;;5011562;28;20443;-80
2023/10/02 09:54:20;;;;;;;16.17;14.70;;;21.70;19.40;;;;;;5004321;28;20875;-80
2023/10/02 09:57:05;;;;;;;15.37;13.77;;;21.80;19.10;;;;;;4972727;28;20448;-80
2023/10/02 09:59:46;;;;;;;16.37;14.00;;;21.90;19.70;;;;;;5005045;28;20415;-80
2023/10/02 10:05:39;;;;;;;15.07;13.60;;;22.00;18.80;;;;;;4996254;28;20417;-80
2023/10/02 10:08:18;;;;;;;14.40;13.00;;;22.10;18.80;;;;;;4999767;28;20491;-80
2023/10/02 10:10:50;;;;;;;17.63;13.53;;;22.30;18.40;;;;;;4999780;28;20411;-81
2023/10/02 10:13:34;;;;;;;16.20;14.50;;;22.30;18.00;;;;;;4985670;28;20443;-81
2023/10/02 10:16:20;;;;;;;15.80;14.40;;;22.40;17.90;;;;;;4998950;28;21057;-78
2023/10/02 10:19:26;;;;;;;16.47;15.00;;;22.50;17.70;;;;;;4987035;28;20424;-80
2023/10/02 10:21:58;;;;;;;16.93;15.20;;;22.60;18.00;;;;;;5016069;28;20440;-81
2023/10/02 10:27:54;;;;;;;67.80;44.20;;;22.80;17.10;;;;;;4979395;28;20591;-81
2023/10/02 10:30:28;;;;;;;17.67;15.97;;;22.80;17.30;;;;;;5007582;28;20427;-79
2023/10/02 10:35:52;;;;;;;17.50;15.90;;;23.00;16.70;;;;;;5019767;28;20446;-80
2023/10/02 10:38:25;;;;;;;17.23;15.63;;;23.00;16.30;;;;;;5011399;28;20456;-79
2023/10/02 10:40:54;;;;;;;16.47;14.97;;;23.10;16.60;;;;;;5017071;28;20429;-81
2023/10/02 10:43:28;;;;;;;18.20;15.17;;;23.20;15.40;;;;;;4990621;28;20434;-81
2023/10/02 10:46:12;;;;;;;16.30;14.90;;;23.20;15.70;;;;;;4983127;28;20473;-80
2023/10/02 10:48:48;;;;;;;18.63;15.50;;;23.30;15.30;;;;;;4986781;28;20564;-80
2023/10/02 10:51:36;;;;;;;15.27;13.87;;;23.30;15.30;;;;;;4984728;28;20437;-80
2023/10/02 10:54:12;;;;;;;14.97;13.53;;;23.40;15.40;;;;;;5009119;28;20892;-81
2023/10/02 10:56:55;;;;;;;16.47;14.77;;;23.40;14.90;;;;;;4998415;28;20467;-82
2023/10/02 10:59:32;;;;;;;16.87;15.33;;;23.40;15.00;;;;;;5008541;28;20432;-79
2023/10/02 11:02:12;;;;;;;17.73;15.10;;;23.40;15.90;;;;;;5009712;28;20451;-80
2023/10/02 11:04:50;;;;;;;19.97;16.10;;;23.40;15.40;;;;;;4975862;28;20429;-79
2023/10/02 11:07:25;;;;;;;15.87;14.27;;;23.40;15.10;;;;;;5000657;28;20880;-78
2023/10/02 11:10:17;;;;;;;15.23;13.17;;;23.40;14.90;;;;;;5005694;28;20454;-79
2023/10/02 11:12:56;;;;;;;16.80;15.10;;;23.40;14.50;;;;;;4998520;28;20946;-79
2023/10/02 11:18:18;;;;;;;17.20;15.47;;;23.60;13.60;;;;;;5011368;28;20447;-77
2023/10/02 11:20:50;;;;;;;16.53;14.93;;;23.60;13.70;;;;;;4986877;28;20462;-77
2023/10/02 11:23:44;;;;;;;16.30;14.70;;;23.60;13.80;;;;;;5012970;28;20413;-79
2023/10/02 11:26:21;;;;;;;18.30;16.50;;;23.50;13.30;;;;;;5002982;28;20456;-78
2023/10/02 11:28:50;;;;;;;18.47;16.20;;;23.70;12.30;;;;;;5008339;28;20570;-78
2023/10/02 11:31:29;;;;;;;15.43;13.23;;;23.80;12.30;;;;;;4979933;28;20436;-79
2023/10/02 11:34:02;;;;;;;17.40;15.70;;;23.80;13.00;;;;;;5002022;28;20433;-78
2023/10/02 11:36:36;;;;;;;18.10;15.50;;;23.90;12.90;;;;;;4988398;28;20461;-79
2023/10/02 11:39:09;;;;;;;20.80;16.93;;;23.90;12.30;;;;;;4982588;28;20441;-79
2023/10/02 11:41:39;;;;;;;15.57;12.30;;;24.00;11.90;;;;;;4992779;28;20524;-79
2023/10/02 11:44:06;;;;;;;17.97;12.47;;;24.00;11.60;;;;;;5005158;28;20429;-79
2023/10/02 11:46:32;;;;;;;17.20;15.40;;;24.10;12.20;;;;;;5003065;28;20465;-78
2023/10/02 11:48:58;;;;;;;21.90;14.07;;;24.00;12.90;;;;;;5006928;28;20417;-79
2023/10/02 11:51:31;;;;;;;18.80;13.97;;;23.80;13.00;;;;;;4982180;28;20213;-79
2023/10/02 11:53:57;;;;;;;17.20;15.40;;;23.80;13.40;;;;;;4994045;28;20177;-78
2023/10/02 11:56:24;;;;;;;15.80;13.17;;;23.70;12.70;;;;;;5006746;28;20441;-79
2023/10/02 11:58:52;;;;;;;17.77;16.13;;;23.70;12.10;;;;;;5008901;28;20551;-79
2023/10/02 12:01:19;;;;;;;19.40;15.17;;;23.80;11.60;;;;;;4997374;28;20546;-79
2023/10/02 12:03:45;;;;;;;18.97;16.97;;;23.80;11.60;;;;;;5000999;28;20421;-78
2023/10/02 12:06:14;;;;;;;20.23;16.23;;;23.80;11.70;;;;;;5016764;28;20474;-79
2023/10/02 12:08:40;;;;;;;16.90;15.30;;;23.80;10.70;;;;;;5007864;28;20184;-78
2023/10/02 12:11:08;;;;;;;21.33;18.20;;;23.80;11.00;;;;;;5012007;28;20507;-79
2023/10/02 12:13:34;;;;;;;19.47;17.40;;;23.90;10.50;;;;;;5009668;28;20456;-79
2023/10/02 12:16:02;;;;;;;16.90;14.13;;;24.00;9.10;;;;;;5005621;28;20461;-79
2023/10/02 12:18:27;;;;;;;21.03;14.10;;;24.00;9.10;;;;;;4999849;28;20422;-79
2023/10/02 12:20:53;;;;;;;20.80;14.50;;;24.00;9.30;;;;;;5010274;28;20483;-79
2023/10/02 12:23:19;;;;;;;24.10;16.60;;;24.00;9.10;;;;;;5001478;28;20206;-78
2023/10/02 12:25:48;;;;;;;16.93;15.17;;;24.10;9.40;;;;;;5006311;28;20242;-79
2023/10/02 12:28:14;;;;;;;18.63;16.50;;;24.10;9.10;;;;;;4998781;28;20205;-79
2023/10/02 12:30:40;;;;;;;20.70;14.60;;;24.10;8.90;;;;;;5002708;28;20936;-78
2023/10/02 12:33:05;;;;;;;19.33;17.00;;;24.10;8.50;;;;;;5018626;28;20488;-78
2023/10/02 12:35:36;;;;;;;18.50;14.70;;;24.10;8.30;;;;;;5010267;28;20209;-79
2023/10/02 12:38:02;;;;;;;19.90;14.30;;;24.20;8.20;;;;;;5009932;28;20193;-79
2023/10/02 12:40:31;;;;;;;23.23;18.60;;;24.20;7.90;;;;;;5001530;28;20468;-79
2023/10/02 12:43:01;;;;;;;22.30;19.90;;;24.20;8.40;;;;;;4992437;28;20440;-80
2023/10/02 12:45:33;;;;;;;24.40;15.47;;;24.10;8.80;;;;;;5014180;28;20456;-79
2023/10/02 12:47:58;;;;;;;18.63;13.90;;;24.10;8.60;;;;;;5005025;28;20473;-79
2023/10/02 12:50:24;;;;;;;20.83;16.53;;;24.10;9.00;;;;;;4994617;28;20440;-79
2023/10/02 12:52:50;;;;;;;20.07;17.07;;;24.10;9.20;;;;;;5008741;28;20193;-78
2023/10/02 12:55:16;;;;;;;24.60;18.40;;;24.10;8.60;;;;;;5002102;28;20265;-79
2023/10/02 12:57:41;;;;;;;21.00;17.20;;;24.10;8.90;;;;;;5002984;28;20187;-79
2023/10/02 13:00:16;;;;;;;25.00;18.87;;;24.10;9.10;;;;;;5003922;28;20439;-79
2023/10/02 13:02:42;;;;;;;25.33;18.60;;;24.10;9.50;;;;;;5006049;28;20220;-79
2023/10/02 13:05:09;;;;;;;21.10;16.27;;;24.10;9.30;;;;;;5007294;28;20420;-80
2023/10/02 13:07:35;;;;;;;17.50;13.00;;;24.10;10.00;;;;;;5008482;28;20217;-79
2023/10/02 13:10:01;;;;;;;23.90;17.70;;;24.10;9.50;;;;;;5000768;28;20425;-79
2023/10/02 13:12:28;;;;;;;20.47;16.07;;;24.10;9.40;;;;;;5009794;28;20247;-78
2023/10/02 13:14:54;;;;;;;25.30;17.97;;;24.20;9.60;;;;;;5000559;28;20459;-79
2023/10/02 13:17:20;;;;;;;24.37;19.60;;;24.20;9.40;;;;;;4990725;28;20210;-78
2023/10/02 13:19:45;;;;;;;23.50;18.40;;;24.20;9.50;;;;;;5005008;28;20865;-79
2023/10/02 13:22:11;;;;;;;19.97;17.27;;;24.20;9.40;;;;;;4999992;28;20269;-80
2023/10/02 13:24:36;;;;;;;20.53;13.63;;;24.30;8.90;;;;;;5007661;28;20673;-79
2023/10/02 13:27:02;;;;;;;21.97;15.50;;;24.30;9.20;;;;;;5004515;28;20537;-79
2023/10/02 13:29:28;;;;;;;18.97;15.80;;;24.30;9.20;;;;;;5010335;28;20185;-79
2023/10/02 13:31:53;;;;;;;21.00;14.67;;;24.30;8.50;;;;;;5006920;28;20190;-79
2023/10/02 13:34:20;;;;;;;20.20;14.47;;;24.40;8.60;;;;;;5004682;28;20272;-79
2023/10/02 13:36:46;;;;;;;21.43;14.50;;;24.40;8.60;;;;;;4984348;28;20672;-79
2023/10/02 13:39:13;;;;;;;23.27;18.13;;;24.40;8.60;;;;;;4985377;28;20425;-79
2023/10/02 13:41:39;;;;;;;23.83;15.03;;;24.50;8.60;;;;;;5008231;28;20471;-78
2023/10/02 13:44:07;;;;;;;22.23;15.63;;;24.60;8.40;;;;;;4997860;28;20429;-80
2023/10/02 13:46:38;;;;;;;20.77;15.70;;;24.50;8.60;;;;;;5008197;28;20219;-79